Boulder City, Nevada Weather observations

Data are for observation ending at time listed.
 Day   Time    Ave.   Ave.  Ave.  Vector   Max.   Stn.    Total    Solar   Ave.  
  of    of     Air    Rel.  Wind   Wind    Wind   Baro.  Precip.   Rad.    Soil  
Year   Day     Temp.  Hum.  Speed  Dir.    Gust   Pres.                    Temp. 
2015   (PST)    F      %     mph   deg.    mph     mb.     in.     W/m2     F   
------------------------------------------------------------------------------
 187   11:50   95.0    25    3.7   153      6.9   934.1    0.00     619    95.7
 187   12:00   93.9    25    2.5   192      6.5   934.0    0.00     963    95.9
 187   12:10   94.5    24    2.2    23      5.6   933.7    0.00     918    96.3
 187   12:20   96.9    22    2.8   142      7.1   933.6    0.00     930    96.7
 187   12:30   96.8    22    2.6   130      6.4   933.5    0.00     934    97.1
 187   12:40   97.8    22    3.8   139      9.0   933.4    0.00     887    97.4
 187   12:50   98.1    21    3.3   135      7.7   933.3    0.00     951    97.8
 187   13:00   96.8    21    2.9   194      7.5   933.2    0.00     933    98.3
 187   13:10   97.6    21    4.2   140     10.5   933.1    0.00     581    98.7
 187   13:20   97.7    21    3.0   139      8.9   933.0    0.00     582    99.0
 187   13:30   97.8    18    2.9   209      8.6   932.8    0.00     569    99.4
 187   13:40   97.1    19    5.8   220     12.0   932.8    0.00     485    99.8
 187   13:50   97.0    20    4.7   216      9.8   932.7    0.00     442    100.2
 187   14:00   96.6    23    6.2   184     13.2   932.5    0.00     418    100.5
 187   14:10   96.8    22    5.0   162      9.7   932.3    0.00     361    100.8
 187   14:20   96.8    22    3.2   136      8.2   932.2    0.00     346    101.1
 187   14:30   96.7    23    4.4   141      9.8   931.9    0.00     336    101.2
 187   14:40   96.5    22    4.2   182      9.9   931.7    0.00     339    101.4
 187   14:50   96.3    22    7.5   208     12.3   931.6    0.00     331    101.5
 187   15:00   96.1    22    6.3   184     12.8   931.6    0.00     327    101.6
 187   15:10   96.2    21    6.5   191     16.5   931.6    0.00     326    101.7
 187   15:20   95.3    22    6.9   225     12.4   931.5    0.00     347    101.8
 187   15:30   95.9    22    5.3   194     10.5   931.4    0.00     367    101.8
 187   15:40   96.3    21    5.6   184     13.7   931.3    0.00     306    101.9
 187   15:50   96.0    21    6.5   190     12.5   931.4    0.00     301    101.9
 187   16:00   96.6    21    5.5   167     12.2   931.3    0.00     314    101.9
 187   16:10   96.9    20    3.9   199      8.3   931.1    0.00     389    101.9
 187   16:20   97.7    20    4.2   184      9.4   931.0    0.00     477    101.9
 187   16:30   98.6    19    3.7   188      8.2   930.9    0.00     494    101.9
 187   16:40   98.5    19    3.4   215      8.3   931.0    0.00     333    101.9
 187   16:50   96.4    20    3.5   220      7.2   931.1    0.00     156    101.9
 187   17:00   95.7    21    2.2   212      5.4   931.1    0.00     135    101.8
 187   17:10   96.0    20    1.3   253      2.8   931.0    0.00      98    101.8
 187   17:20   95.8    20    1.6   271      3.9   930.9    0.00      83    101.7
 187   17:30   95.7    20    0.7   352      3.3   930.6    0.00      77    101.7
 187   17:40   94.5    24    7.8    20     18.4   930.7    0.00      67    101.7
 187   17:50   91.7    26    8.2    20     17.8   931.0    0.00      44    101.6
 187   18:00   90.9    26    7.9    15     15.3   931.2    0.00      21    101.6
 187   18:10   90.4    26    4.4     2     11.0   931.2    0.00      12    101.5
 187   18:20   90.5    25    4.3    11     12.1   931.2    0.00       8    101.4
 187   18:30   90.2    26    4.3   357     12.6   931.3    0.00       4    101.3
 187   18:40   89.2    26    5.6   305     16.0   932.1    0.00       0    101.2
 187   18:50   86.2    31    3.9   307      9.4   932.3    0.00       1    101.1
 187   19:00   82.5    44    3.5   320      9.9   931.8    0.03       1    100.9
 187   19:10   79.9    46    4.2   342     17.6   931.5    0.03       0    100.9
 187   19:20   78.8    47    3.8   356      8.9   931.0    0.01       0    100.8
 187   19:30   79.4    46    2.7     4      6.1   930.4    0.00       0    100.6
 187   19:40   81.6    39    2.1     2      5.0   930.3    0.00       0    100.5
 187   19:50   84.0    33    2.6     7      7.0   930.3    0.00       0    100.3
 187   20:00   84.7    35    1.6   218      7.0   930.9    0.02       0    100.2
 187   20:10   78.9    57    6.8   145     11.7   931.0    0.01       0    100.0
 187   20:20   78.7    53    4.9   157      9.3   931.2    0.00       0    99.7
 187   20:30   79.2    54    5.2   218      8.9   931.5    0.00       0    99.5
 187   20:40   79.6    50    3.4   225      5.9   931.3    0.00       0    99.3
 187   20:50   80.0    46    4.4   241      8.9   931.4    0.00       0    99.1
 187   21:00   80.4    46    4.0   210     11.8   931.7    0.00       0    98.9
 187   21:10   81.2    42    4.8   224      9.1   931.7    0.00       0    98.7
 187   21:20   81.3    42    4.2   229      6.4   931.8    0.00       0    98.4
 187   21:30   81.5    41    5.1   218      8.2   931.8    0.00       0    98.1
 187   21:40   81.2    42    4.0   231      7.5   931.7    0.00       0    97.9
 187   21:50   80.5    45    2.4   232      4.3   931.6    0.00       0    97.6
 187   22:00   80.0    49    3.3   201      5.5   931.6    0.00       0    97.3
 187   22:10   80.3    46    3.0   238      4.3   931.5    0.00       0    97.1
 187   22:20   80.1    51    3.2   187      5.4   931.4    0.00       0    96.9
 187   22:30   80.3    48    3.5   227      4.8   931.4    0.00       0    96.6
 187   22:40   80.6    44    1.6   266      4.8   931.3    0.00       0    96.4
 187   22:50   80.5    45    1.4   265      2.9   931.4    0.00       0    96.2
 187   23:00   80.3    44    1.6   291      3.7   931.3    0.00       0    95.9
 187   23:10   80.7    42    2.0   284      3.8   931.3    0.00       0    95.7
 187   23:20   80.9    41    2.5   243      4.5   931.4    0.00       0    95.5
 187   23:30   81.5    37    2.9   248      4.8   931.5    0.00       0    95.4
 187   23:40   80.9    41    3.7   250      7.0   931.5    0.00       0    95.3
 187   23:50   80.2    44    2.2   244      5.5   931.3    0.00       0    95.1
 188    0:00   79.8    44    2.0   242      3.8   931.1    0.00       0    94.9
 188    0:10   79.8    42    2.3   248      4.2   931.0    0.00       0    94.7
 188    0:20   80.1    42    2.2   242      4.0   931.0    0.00       0    94.5
 188    0:30   80.7    39    0.7     2      4.2   931.0    0.00       0    94.4
 188    0:40   80.1    42    0.1   346      0.8   930.9    0.00       0    94.2
 188    0:50   79.4    47    0.3   217      1.9   930.8    0.00       0    94.0
 188    1:00   78.7    49    1.0   282      1.9   930.8    0.00       0    93.8
 188    1:10   78.7    50    0.3    15      1.3   930.8    0.00       0    93.6
 188    1:20   78.7    51    1.9    38      4.1   930.7    0.00       0    93.5
 188    1:30   78.8    52    1.1    54      3.0   930.7    0.00       0    93.4
 188    1:40   78.5    53    1.9   223      3.7   930.9    0.00       0    93.2
 188    1:50   78.3    51    2.6    14      5.3   930.7    0.00       0    93.1
 188    2:00   78.7    49    1.0    19      3.8   930.5    0.00       0    92.9
 188    2:10   77.7    52    0.4   279      1.2   930.4    0.00       0    92.8
 188    2:20   76.6    56    1.5   218      2.5   930.4    0.00       0    92.6
 188    2:30   76.6    54    1.7   228      2.9   930.4    0.00       0    92.5
 188    2:40   76.6    54    2.6   224      4.2   930.4    0.00       0    92.4
 188    2:50   77.1    52    2.6   229      4.5   930.4    0.00       0    92.3
 188    3:00   76.7    53    2.9   226      3.7   930.3    0.00       0    92.1
 188    3:10   75.8    57    2.7   204      4.1   930.3    0.00       0    92.0
 188    3:20   75.9    54    3.2   213      5.3   930.4    0.00       0    91.9
 188    3:30   78.0    46    4.6   232      6.6   930.4    0.00       0    91.7
 188    3:40   78.0    47    3.3   209      5.1   930.5    0.00       0    91.6
 188    3:50   77.4    49    3.8   200      6.1   930.5    0.00       0    91.5
 188    4:00   76.9    51    5.1   189      9.1   930.6    0.00       0    91.3
 188    4:10   76.5    53    4.0   214      7.2   930.8    0.00       0    91.2
 188    4:20   76.9    50    3.4   213      6.1   930.9    0.00       0    91.1
 188    4:30   76.4    53    3.2   199      6.3   930.9    0.00       0    90.9
 188    4:40   76.0    54    1.7   205      3.3   931.1    0.00       3    90.8
 188    4:50   75.4    55    1.0   234      2.5   931.1    0.00       5    90.7
 188    5:00   74.9    57    1.8   235      2.7   931.0    0.00       9    90.5
 188    5:10   74.4    60    2.1   238      2.9   931.1    0.00      14    90.4
 188    5:20   74.1    61    1.9   226      3.3   931.1    0.00      17    90.3
 188    5:30   74.4    59    0.4   287      1.5   931.2    0.00      22    90.1
 188    5:40   75.5    56    1.2   249      2.0   931.4    0.00      68    90.0
 188    5:50   76.7    57    0.5   186      1.2   931.4    0.00      53    89.9
 188    6:00   77.4    52    0.6    18      2.1   931.5    0.00      71    89.8
 188    6:10   79.4    49    0.3    26      1.4   931.6    0.00      78    89.7
 188    6:20   80.6    46    1.3    22      2.6   931.7    0.00      76    89.6
 188    6:30   81.2    45    1.4    23      2.9   931.9    0.00     135    89.5
 188    6:40   82.1    44    1.1    37      3.7   932.0    0.00     281    89.4
 188    6:50   85.3    38    2.0    38      4.6   932.1    0.00     445    89.3
 188    7:00   85.9    36    3.4    25      7.2   932.4    0.00     372    89.3
 188    7:10   85.6    37    3.3    26      6.6   932.7    0.00     458    89.2
 188    7:20   86.7    36    2.5    42      4.3   932.8    0.00     468    89.2
 188    7:30   87.7    34    1.6    59      3.7   932.9    0.00     501    89.2
 188    7:40   89.4    32    1.0    84      2.8   932.9    0.00     522    89.2
 188    7:50   90.1    31    0.8   125      2.9   932.9    0.00     476    89.2
 188    8:00   89.7    30    1.5    22      5.1   933.0    0.00     591    89.2
 188    8:10   89.2    30    2.1    30      4.3   933.1    0.00     625    89.3
 188    8:20   89.8    29    2.5    27      4.5   933.1    0.00     660    89.4
 188    8:30   89.3    32    2.7    42      5.8   933.0    0.00     674    89.5
 188    8:40   90.0    31    2.5    34      7.2   932.9    0.00     692    89.7
 188    8:50   89.6    30    2.4    19      5.7   932.8    0.00     719    89.9
 188    9:00   90.2    29    2.9    15      6.4   932.7    0.00     743    90.0
 188    9:10   91.2    28    2.0    35      6.1   932.7    0.00     757    90.2
 188    9:20   91.1    28    2.8    22      5.8   932.6    0.00     783    90.4
 188    9:30   91.0    26    2.4    37      5.0   932.7    0.00     803    90.6
 188    9:40   92.7    24    2.0    40      7.7   932.7    0.00     818    90.8
 188    9:50   92.3    26    3.4    27      7.5   932.7    0.00     835    91.1
 188   10:00   91.7    27    3.5    19     10.4   932.7    0.00     835    91.4
 188   10:10   92.4    26    3.9    24      9.9   932.7    0.00     846    91.7
 188   10:20   93.0    25    4.1    18      9.3   932.6    0.00     879    92.0
 188   10:30   93.3    25    3.7    28      7.7   932.5    0.00     888    92.3
 188   10:40   94.2    24    3.5    26      9.3   932.5    0.00     901    92.6
 188   10:50   94.2    23    4.5    26      9.1   932.4    0.00     914    92.9
 188   11:00   94.3    22    3.5    31      8.4   932.3    0.00     909    93.2
 188   11:10   94.9    21    2.9    10      9.1   932.1    0.00     920    93.5
 188   11:20   94.5    22    3.0     8      7.3   932.0    0.00     932    93.8
 188   11:30   95.6    22    2.7    32      9.3   931.8    0.00     934    94.2
 188   11:40   95.9    22    2.3    34      6.1   931.6    0.00     938    94.6

Return to Boulder City, Nevada graphs page.


Western Regional Climate Center,wrcc@dri.edu